sensor_id;sensor_type;location;lat;lon;timestamp;temperature;humidity
52127;DHT22;38120;53.176;6.614;2024-01-07T00:00:18;-0.10;99.90
52127;DHT22;38120;53.176;6.614;2024-01-07T00:02:43;-0.10;99.90
52127;DHT22;38120;53.176;6.614;2024-01-07T00:05:09;-0.10;99.90
52127;DHT22;38120;53.176;6.614;2024-01-07T00:07:35;0.00;99.90
52127;DHT22;38120;53.176;6.614;2024-01-07T00:10:00;-0.10;99.90
52127;DHT22;38120;53.176;6.614;2024-01-07T00:12:26;-0.10;99.90
52127;DHT22;38120;53.176;6.614;2024-01-07T00:14:52;0.00;99.90
52127;DHT22;38120;53.176;6.614;2024-01-07T00:17:17;0.00;99.90
52127;DHT22;38120;53.176;6.614;2024-01-07T00:19:43;-0.10;99.90
52127;DHT22;38120;53.176;6.614;2024-01-07T00:22:09;-0.10;99.90
52127;DHT22;38120;53.176;6.614;2024-01-07T00:24:34;-0.10;99.90
52127;DHT22;38120;53.176;6.614;2024-01-07T00:27:00;-0.20;99.90
52127;DHT22;38120;53.176;6.614;2024-01-07T00:29:26;-0.10;99.90
52127;DHT22;38120;53.176;6.614;2024-01-07T00:31:51;1.20;99.90
52127;DHT22;38120;53.176;6.614;2024-01-07T00:34:17;-0.20;99.90
52127;DHT22;38120;53.176;6.614;2024-01-07T00:36:43;-0.20;99.90
52127;DHT22;38120;53.176;6.614;2024-01-07T00:39:09;-0.30;99.90
52127;DHT22;38120;53.176;6.614;2024-01-07T00:41:34;-0.30;99.90
52127;DHT22;38120;53.176;6.614;2024-01-07T00:44:00;-0.20;99.90
52127;DHT22;38120;53.176;6.614;2024-01-07T00:46:25;-0.30;99.90
52127;DHT22;38120;53.176;6.614;2024-01-07T00:48:51;-0.30;99.90
52127;DHT22;38120;53.176;6.614;2024-01-07T00:51:17;-0.30;99.90
52127;DHT22;38120;53.176;6.614;2024-01-07T00:53:42;-0.30;99.90
52127;DHT22;38120;53.176;6.614;2024-01-07T00:56:09;0.50;99.90
52127;DHT22;38120;53.176;6.614;2024-01-07T00:58:36;-0.40;99.90
52127;DHT22;38120;53.176;6.614;2024-01-07T01:01:02;-0.30;99.90
52127;DHT22;38120;53.176;6.614;2024-01-07T01:03:27;-0.30;99.90
52127;DHT22;38120;53.176;6.614;2024-01-07T01:05:53;-0.30;99.90
52127;DHT22;38120;53.176;6.614;2024-01-07T01:08:19;-0.20;99.90
52127;DHT22;38120;53.176;6.614;2024-01-07T01:10:44;-0.30;99.90
52127;DHT22;38120;53.176;6.614;2024-01-07T01:13:10;-0.30;99.90
52127;DHT22;38120;53.176;6.614;2024-01-07T01:15:36;-0.30;99.90
52127;DHT22;38120;53.176;6.614;2024-01-07T01:18:02;-0.20;99.90
52127;DHT22;38120;53.176;6.614;2024-01-07T01:20:28;-0.20;99.90
52127;DHT22;38120;53.176;6.614;2024-01-07T01:22:53;-0.20;99.90
52127;DHT22;38120;53.176;6.614;2024-01-07T01:25:19;-0.20;99.90
52127;DHT22;38120;53.176;6.614;2024-01-07T01:27:46;-0.20;99.90
52127;DHT22;38120;53.176;6.614;2024-01-07T01:30:12;-0.20;99.90
52127;DHT22;38120;53.176;6.614;2024-01-07T01:32:39;-0.20;99.90
52127;DHT22;38120;53.176;6.614;2024-01-07T01:35:05;-0.20;99.90
52127;DHT22;38120;53.176;6.614;2024-01-07T01:37:31;-0.20;99.90
52127;DHT22;38120;53.176;6.614;2024-01-07T01:40:00;-0.30;99.90
52127;DHT22;38120;53.176;6.614;2024-01-07T01:42:25;0.00;99.90
52127;DHT22;38120;53.176;6.614;2024-01-07T01:44:51;-0.30;99.90
52127;DHT22;38120;53.176;6.614;2024-01-07T01:47:18;-0.30;99.90
52127;DHT22;38120;53.176;6.614;2024-01-07T01:49:45;-0.30;99.90
52127;DHT22;38120;53.176;6.614;2024-01-07T01:52:12;-0.40;99.90
52127;DHT22;38120;53.176;6.614;2024-01-07T01:54:39;-0.40;99.90
52127;DHT22;38120;53.176;6.614;2024-01-07T01:57:05;-0.40;99.90
52127;DHT22;38120;53.176;6.614;2024-01-07T01:59:33;-0.20;99.90
52127;DHT22;38120;53.176;6.614;2024-01-07T02:02:00;-0.20;99.90
52127;DHT22;38120;53.176;6.614;2024-01-07T02:04:26;-0.40;99.90
52127;DHT22;38120;53.176;6.614;2024-01-07T02:06:52;-0.40;99.90
52127;DHT22;38120;53.176;6.614;2024-01-07T02:09:20;-0.40;99.90
52127;DHT22;38120;53.176;6.614;2024-01-07T02:12:03;-0.40;99.90
52127;DHT22;38120;53.176;6.614;2024-01-07T02:14:29;-0.40;99.90
52127;DHT22;38120;53.176;6.614;2024-01-07T02:16:54;-0.40;99.90
52127;DHT22;38120;53.176;6.614;2024-01-07T02:19:20;-0.40;99.90
52127;DHT22;38120;53.176;6.614;2024-01-07T02:21:47;-0.40;99.90
52127;DHT22;38120;53.176;6.614;2024-01-07T02:24:16;-0.40;99.90
52127;DHT22;38120;53.176;6.614;2024-01-07T02:26:42;-0.40;99.90
52127;DHT22;38120;53.176;6.614;2024-01-07T02:29:08;-0.40;99.90
52127;DHT22;38120;53.176;6.614;2024-01-07T02:31:34;-0.40;99.90
52127;DHT22;38120;53.176;6.614;2024-01-07T02:33:59;-0.30;99.90
52127;DHT22;38120;53.176;6.614;2024-01-07T02:36:25;-0.40;99.90
52127;DHT22;38120;53.176;6.614;2024-01-07T02:38:51;-0.40;99.90
52127;DHT22;38120;53.176;6.614;2024-01-07T02:41:16;-0.40;99.90
52127;DHT22;38120;53.176;6.614;2024-01-07T02:43:42;-0.40;99.90
52127;DHT22;38120;53.176;6.614;2024-01-07T02:46:08;-0.40;99.90
52127;DHT22;38120;53.176;6.614;2024-01-07T02:48:34;-0.30;99.90
52127;DHT22;38120;53.176;6.614;2024-01-07T02:51:00;-0.40;99.90
52127;DHT22;38120;53.176;6.614;2024-01-07T02:53:26;-0.40;99.90
52127;DHT22;38120;53.176;6.614;2024-01-07T02:55:51;-0.40;99.90
52127;DHT22;38120;53.176;6.614;2024-01-07T02:58:17;-0.40;99.90
52127;DHT22;38120;53.176;6.614;2024-01-07T03:00:43;-0.40;99.90
52127;DHT22;38120;53.176;6.614;2024-01-07T03:03:08;-0.40;99.90
52127;DHT22;38120;53.176;6.614;2024-01-07T03:05:34;-0.40;99.90
52127;DHT22;38120;53.176;6.614;2024-01-07T03:08:00;-0.40;99.90
52127;DHT22;38120;53.176;6.614;2024-01-07T03:10:26;-0.30;99.90
52127;DHT22;38120;53.176;6.614;2024-01-07T03:12:52;-0.40;99.90
52127;DHT22;38120;53.176;6.614;2024-01-07T03:15:17;-0.40;99.90
52127;DHT22;38120;53.176;6.614;2024-01-07T03:17:43;-0.40;99.90
52127;DHT22;38120;53.176;6.614;2024-01-07T03:20:10;-0.20;99.90
52127;DHT22;38120;53.176;6.614;2024-01-07T03:22:36;-0.30;99.90
52127;DHT22;38120;53.176;6.614;2024-01-07T03:25:01;-0.40;99.90
52127;DHT22;38120;53.176;6.614;2024-01-07T03:27:27;-0.40;99.90
52127;DHT22;38120;53.176;6.614;2024-01-07T03:29:53;-0.30;99.90
52127;DHT22;38120;53.176;6.614;2024-01-07T03:32:18;-0.30;99.90
52127;DHT22;38120;53.176;6.614;2024-01-07T03:34:44;-0.30;99.90
52127;DHT22;38120;53.176;6.614;2024-01-07T03:37:10;-0.50;99.90
52127;DHT22;38120;53.176;6.614;2024-01-07T03:39:36;-0.40;99.90
52127;DHT22;38120;53.176;6.614;2024-01-07T03:42:01;-0.40;99.90
52127;DHT22;38120;53.176;6.614;2024-01-07T03:44:27;-0.30;99.90
52127;DHT22;38120;53.176;6.614;2024-01-07T03:46:53;-0.40;99.90
52127;DHT22;38120;53.176;6.614;2024-01-07T03:49:18;-0.40;99.90
52127;DHT22;38120;53.176;6.614;2024-01-07T03:51:44;-0.30;99.90
52127;DHT22;38120;53.176;6.614;2024-01-07T03:54:10;-0.40;99.90
52127;DHT22;38120;53.176;6.614;2024-01-07T03:56:35;-0.40;99.90
52127;DHT22;38120;53.176;6.614;2024-01-07T03:59:01;-0.40;99.90
52127;DHT22;38120;53.176;6.614;2024-01-07T04:01:27;-0.40;99.90
52127;DHT22;38120;53.176;6.614;2024-01-07T04:03:53;-0.40;99.90
52127;DHT22;38120;53.176;6.614;2024-01-07T04:06:18;-0.40;99.90
52127;DHT22;38120;53.176;6.614;2024-01-07T04:08:44;-0.40;99.90
52127;DHT22;38120;53.176;6.614;2024-01-07T04:11:10;-0.50;99.90
52127;DHT22;38120;53.176;6.614;2024-01-07T04:13:36;-0.40;99.90
52127;DHT22;38120;53.176;6.614;2024-01-07T04:16:02;-0.40;99.90
52127;DHT22;38120;53.176;6.614;2024-01-07T04:18:28;-0.40;99.90
52127;DHT22;38120;53.176;6.614;2024-01-07T04:20:53;-0.50;99.90
52127;DHT22;38120;53.176;6.614;2024-01-07T04:23:19;-0.40;99.90
52127;DHT22;38120;53.176;6.614;2024-01-07T04:25:45;-0.40;99.90
52127;DHT22;38120;53.176;6.614;2024-01-07T04:28:11;-0.40;99.90
52127;DHT22;38120;53.176;6.614;2024-01-07T04:30:36;-0.40;99.90
52127;DHT22;38120;53.176;6.614;2024-01-07T04:33:03;-0.40;99.90
52127;DHT22;38120;53.176;6.614;2024-01-07T04:35:29;-0.40;99.90
52127;DHT22;38120;53.176;6.614;2024-01-07T04:37:54;-0.40;99.90
52127;DHT22;38120;53.176;6.614;2024-01-07T04:40:20;-0.40;99.90
52127;DHT22;38120;53.176;6.614;2024-01-07T04:42:46;-0.40;99.90
52127;DHT22;38120;53.176;6.614;2024-01-07T04:45:11;-0.40;99.90
52127;DHT22;38120;53.176;6.614;2024-01-07T04:47:37;-0.40;99.90
52127;DHT22;38120;53.176;6.614;2024-01-07T04:50:03;-0.40;99.90
52127;DHT22;38120;53.176;6.614;2024-01-07T04:52:29;-0.40;99.90
52127;DHT22;38120;53.176;6.614;2024-01-07T04:54:56;-0.40;99.90
52127;DHT22;38120;53.176;6.614;2024-01-07T04:57:22;-0.30;99.90
52127;DHT22;38120;53.176;6.614;2024-01-07T04:59:49;-0.40;99.90
52127;DHT22;38120;53.176;6.614;2024-01-07T05:02:15;-0.40;99.90
52127;DHT22;38120;53.176;6.614;2024-01-07T05:04:41;-0.40;99.90
52127;DHT22;38120;53.176;6.614;2024-01-07T05:07:07;-0.30;99.90
52127;DHT22;38120;53.176;6.614;2024-01-07T05:09:33;-0.30;99.90
52127;DHT22;38120;53.176;6.614;2024-01-07T05:11:59;-0.10;99.90
52127;DHT22;38120;53.176;6.614;2024-01-07T05:14:25;-0.10;99.90
52127;DHT22;38120;53.176;6.614;2024-01-07T05:16:52;-0.30;99.90
52127;DHT22;38120;53.176;6.614;2024-01-07T05:19:18;-0.30;99.90
52127;DHT22;38120;53.176;6.614;2024-01-07T05:21:43;-0.30;99.90
52127;DHT22;38120;53.176;6.614;2024-01-07T05:24:09;-0.30;99.90
52127;DHT22;38120;53.176;6.614;2024-01-07T05:26:42;-0.30;99.90
52127;DHT22;38120;53.176;6.614;2024-01-07T05:29:09;-0.30;99.90
52127;DHT22;38120;53.176;6.614;2024-01-07T05:31:34;-0.30;99.90
52127;DHT22;38120;53.176;6.614;2024-01-07T05:34:00;-0.30;99.90
52127;DHT22;38120;53.176;6.614;2024-01-07T05:36:26;0.20;99.90
52127;DHT22;38120;53.176;6.614;2024-01-07T05:38:51;-0.30;99.90
52127;DHT22;38120;53.176;6.614;2024-01-07T05:41:17;-0.30;99.90
52127;DHT22;38120;53.176;6.614;2024-01-07T05:43:43;-0.30;99.90
52127;DHT22;38120;53.176;6.614;2024-01-07T05:46:08;-0.30;99.90
52127;DHT22;38120;53.176;6.614;2024-01-07T05:48:44;-0.30;99.90
52127;DHT22;38120;53.176;6.614;2024-01-07T05:51:11;-0.30;99.90
52127;DHT22;38120;53.176;6.614;2024-01-07T05:53:37;-0.30;99.90
52127;DHT22;38120;53.176;6.614;2024-01-07T05:56:03;-0.30;99.90
52127;DHT22;38120;53.176;6.614;2024-01-07T05:58:29;-0.30;99.90
52127;DHT22;38120;53.176;6.614;2024-01-07T06:00:55;-0.30;99.90
52127;DHT22;38120;53.176;6.614;2024-01-07T06:03:21;-0.30;99.90
52127;DHT22;38120;53.176;6.614;2024-01-07T06:05:46;-0.30;99.90
52127;DHT22;38120;53.176;6.614;2024-01-07T06:08:12;-0.30;99.90
52127;DHT22;38120;53.176;6.614;2024-01-07T06:10:41;-0.20;99.90
52127;DHT22;38120;53.176;6.614;2024-01-07T06:13:07;-0.20;99.90
52127;DHT22;38120;53.176;6.614;2024-01-07T06:15:33;-0.20;99.90
52127;DHT22;38120;53.176;6.614;2024-01-07T06:17:58;-0.30;99.90
52127;DHT22;38120;53.176;6.614;2024-01-07T06:20:24;-0.30;99.90
52127;DHT22;38120;53.176;6.614;2024-01-07T06:22:50;-0.20;99.90
52127;DHT22;38120;53.176;6.614;2024-01-07T06:25:16;-0.20;99.90
52127;DHT22;38120;53.176;6.614;2024-01-07T06:27:42;0.30;99.90
52127;DHT22;38120;53.176;6.614;2024-01-07T06:30:08;-0.20;99.90
52127;DHT22;38120;53.176;6.614;2024-01-07T06:32:34;-0.30;99.90
52127;DHT22;38120;53.176;6.614;2024-01-07T06:35:01;-0.30;99.90
52127;DHT22;38120;53.176;6.614;2024-01-07T06:37:28;-0.30;99.90
52127;DHT22;38120;53.176;6.614;2024-01-07T06:39:55;-0.30;99.90
52127;DHT22;38120;53.176;6.614;2024-01-07T06:42:21;-0.30;99.90
52127;DHT22;38120;53.176;6.614;2024-01-07T06:44:46;-0.30;99.90
52127;DHT22;38120;53.176;6.614;2024-01-07T06:47:12;-0.30;99.90
52127;DHT22;38120;53.176;6.614;2024-01-07T06:49:39;-0.30;99.90
52127;DHT22;38120;53.176;6.614;2024-01-07T06:52:08;-0.30;99.90
52127;DHT22;38120;53.176;6.614;2024-01-07T06:54:34;-0.40;99.90
52127;DHT22;38120;53.176;6.614;2024-01-07T06:56:59;-0.40;99.90
52127;DHT22;38120;53.176;6.614;2024-01-07T06:59:28;-0.30;99.90
52127;DHT22;38120;53.176;6.614;2024-01-07T07:01:54;-0.40;99.90
52127;DHT22;38120;53.176;6.614;2024-01-07T07:04:21;-0.40;99.90
52127;DHT22;38120;53.176;6.614;2024-01-07T07:06:47;-0.30;99.90
52127;DHT22;38120;53.176;6.614;2024-01-07T07:09:13;-0.40;99.90
52127;DHT22;38120;53.176;6.614;2024-01-07T07:11:40;-0.40;99.90
52127;DHT22;38120;53.176;6.614;2024-01-07T07:14:12;-0.40;99.90
52127;DHT22;38120;53.176;6.614;2024-01-07T07:16:37;-0.40;99.90
52127;DHT22;38120;53.176;6.614;2024-01-07T07:19:03;-0.50;99.90
52127;DHT22;38120;53.176;6.614;2024-01-07T07:21:29;-0.50;99.90
52127;DHT22;38120;53.176;6.614;2024-01-07T07:23:54;-0.50;99.90
52127;DHT22;38120;53.176;6.614;2024-01-07T07:26:20;-0.60;99.90
52127;DHT22;38120;53.176;6.614;2024-01-07T07:28:47;-0.60;99.90
52127;DHT22;38120;53.176;6.614;2024-01-07T07:31:12;-0.70;99.90
52127;DHT22;38120;53.176;6.614;2024-01-07T07:33:39;-0.70;55.20
52127;DHT22;38120;53.176;6.614;2024-01-07T07:36:05;-0.80;95.30
52127;DHT22;38120;53.176;6.614;2024-01-07T07:38:31;-0.80;93.20
52127;DHT22;38120;53.176;6.614;2024-01-07T07:40:58;-0.80;90.20
52127;DHT22;38120;53.176;6.614;2024-01-07T07:43:24;-0.90;29.70
52127;DHT22;38120;53.176;6.614;2024-01-07T07:45:50;-0.90;99.90
52127;DHT22;38120;53.176;6.614;2024-01-07T07:48:16;0.10;99.90
52127;DHT22;38120;53.176;6.614;2024-01-07T07:50:42;-0.90;99.90
52127;DHT22;38120;53.176;6.614;2024-01-07T07:53:08;-1.00;99.90
52127;DHT22;38120;53.176;6.614;2024-01-07T07:55:34;-0.90;99.90
52127;DHT22;38120;53.176;6.614;2024-01-07T07:57:59;-0.90;99.90
52127;DHT22;38120;53.176;6.614;2024-01-07T08:00:25;-0.90;99.90
52127;DHT22;38120;53.176;6.614;2024-01-07T08:02:50;-0.90;99.90
52127;DHT22;38120;53.176;6.614;2024-01-07T08:05:17;-0.90;99.90
52127;DHT22;38120;53.176;6.614;2024-01-07T08:07:43;-0.80;99.90
52127;DHT22;38120;53.176;6.614;2024-01-07T08:10:08;-0.80;99.90
52127;DHT22;38120;53.176;6.614;2024-01-07T08:12:34;-0.80;99.90
52127;DHT22;38120;53.176;6.614;2024-01-07T08:15:00;-0.70;99.90
52127;DHT22;38120;53.176;6.614;2024-01-07T08:17:26;-0.60;99.90
52127;DHT22;38120;53.176;6.614;2024-01-07T08:19:52;-0.60;99.90
52127;DHT22;38120;53.176;6.614;2024-01-07T08:22:18;-0.60;99.90
52127;DHT22;38120;53.176;6.614;2024-01-07T08:24:44;-0.50;99.90
52127;DHT22;38120;53.176;6.614;2024-01-07T08:27:10;-0.60;99.90
52127;DHT22;38120;53.176;6.614;2024-01-07T08:29:36;-0.50;99.90
52127;DHT22;38120;53.176;6.614;2024-01-07T08:32:02;-0.50;99.90
52127;DHT22;38120;53.176;6.614;2024-01-07T08:34:28;-0.50;99.90
52127;DHT22;38120;53.176;6.614;2024-01-07T08:36:53;-0.50;99.90
52127;DHT22;38120;53.176;6.614;2024-01-07T08:39:19;-0.40;99.90
52127;DHT22;38120;53.176;6.614;2024-01-07T08:41:45;-0.40;99.90
52127;DHT22;38120;53.176;6.614;2024-01-07T08:44:11;0.10;99.90
52127;DHT22;38120;53.176;6.614;2024-01-07T08:46:37;-0.40;99.90
52127;DHT22;38120;53.176;6.614;2024-01-07T08:49:04;-0.30;99.90
52127;DHT22;38120;53.176;6.614;2024-01-07T08:51:29;-0.30;99.90
52127;DHT22;38120;53.176;6.614;2024-01-07T08:53:56;-0.30;99.90
52127;DHT22;38120;53.176;6.614;2024-01-07T08:56:23;-0.30;15.80
52127;DHT22;38120;53.176;6.614;2024-01-07T08:58:48;-0.30;1.00
52127;DHT22;38120;53.176;6.614;2024-01-07T09:01:14;-0.20;99.90
52127;DHT22;38120;53.176;6.614;2024-01-07T09:03:40;-0.20;99.90
52127;DHT22;38120;53.176;6.614;2024-01-07T09:06:07;-0.20;1.00
52127;DHT22;38120;53.176;6.614;2024-01-07T09:08:33;-0.20;1.00
52127;DHT22;38120;53.176;6.614;2024-01-07T09:10:59;-0.20;99.90
52127;DHT22;38120;53.176;6.614;2024-01-07T09:13:26;-0.20;99.90
52127;DHT22;38120;53.176;6.614;2024-01-07T09:15:51;0.60;1.00
52127;DHT22;38120;53.176;6.614;2024-01-07T09:18:17;-0.20;99.90
52127;DHT22;38120;53.176;6.614;2024-01-07T09:20:44;-0.10;1.00
52127;DHT22;38120;53.176;6.614;2024-01-07T09:23:09;0.00;1.00
52127;DHT22;38120;53.176;6.614;2024-01-07T09:25:35;0.00;88.00
52127;DHT22;38120;53.176;6.614;2024-01-07T09:28:01;0.00;75.40
52127;DHT22;38120;53.176;6.614;2024-01-07T09:30:26;0.00;99.90
52127;DHT22;38120;53.176;6.614;2024-01-07T09:32:55;0.00;99.90
52127;DHT22;38120;53.176;6.614;2024-01-07T09:35:20;0.10;99.90
52127;DHT22;38120;53.176;6.614;2024-01-07T09:37:46;0.00;99.90
52127;DHT22;38120;53.176;6.614;2024-01-07T09:40:12;0.00;99.90
52127;DHT22;38120;53.176;6.614;2024-01-07T09:42:42;0.10;99.90
52127;DHT22;38120;53.176;6.614;2024-01-07T09:45:08;0.00;65.70
52127;DHT22;38120;53.176;6.614;2024-01-07T09:47:37;0.10;99.90
52127;DHT22;38120;53.176;6.614;2024-01-07T09:50:04;0.10;99.90
52127;DHT22;38120;53.176;6.614;2024-01-07T09:52:33;0.10;99.90
52127;DHT22;38120;53.176;6.614;2024-01-07T09:55:03;0.10;99.90
52127;DHT22;38120;53.176;6.614;2024-01-07T09:57:29;0.10;99.90
52127;DHT22;38120;53.176;6.614;2024-01-07T09:59:55;0.10;99.90
52127;DHT22;38120;53.176;6.614;2024-01-07T10:02:21;0.20;1.00
52127;DHT22;38120;53.176;6.614;2024-01-07T10:04:49;0.20;1.00
52127;DHT22;38120;53.176;6.614;2024-01-07T10:07:15;0.20;99.90
52127;DHT22;38120;53.176;6.614;2024-01-07T10:09:41;0.30;86.30
52127;DHT22;38120;53.176;6.614;2024-01-07T10:12:10;0.30;88.90
52127;DHT22;38120;53.176;6.614;2024-01-07T10:14:38;0.30;99.90
52127;DHT22;38120;53.176;6.614;2024-01-07T10:17:17;0.30;17.40
52127;DHT22;38120;53.176;6.614;2024-01-07T10:19:44;0.40;99.90
52127;DHT22;38120;53.176;6.614;2024-01-07T10:22:13;0.40;1.00
52127;DHT22;38120;53.176;6.614;2024-01-07T10:24:40;0.40;1.00
52127;DHT22;38120;53.176;6.614;2024-01-07T10:27:07;0.40;1.00
52127;DHT22;38120;53.176;6.614;2024-01-07T10:29:33;0.40;95.10
52127;DHT22;38120;53.176;6.614;2024-01-07T10:32:00;0.60;56.90
52127;DHT22;38120;53.176;6.614;2024-01-07T10:34:31;0.50;99.90
52127;DHT22;38120;53.176;6.614;2024-01-07T10:36:59;0.50;99.90
52127;DHT22;38120;53.176;6.614;2024-01-07T10:39:28;0.60;99.90
52127;DHT22;38120;53.176;6.614;2024-01-07T10:41:55;0.60;99.90
52127;DHT22;38120;53.176;6.614;2024-01-07T10:44:31;0.60;74.70
52127;DHT22;38120;53.176;6.614;2024-01-07T10:46:58;0.60;1.00
52127;DHT22;38120;53.176;6.614;2024-01-07T10:49:28;0.60;1.00
52127;DHT22;38120;53.176;6.614;2024-01-07T10:54:28;0.90;1.00
52127;DHT22;38120;53.176;6.614;2024-01-07T10:56:58;0.90;99.90
52127;DHT22;38120;53.176;6.614;2024-01-07T10:59:26;0.90;99.90
52127;DHT22;38120;53.176;6.614;2024-01-07T11:01:53;1.00;1.00
52127;DHT22;38120;53.176;6.614;2024-01-07T11:04:30;1.00;99.90
52127;DHT22;38120;53.176;6.614;2024-01-07T11:07:15;0.90;1.00
52127;DHT22;38120;53.176;6.614;2024-01-07T11:10:02;0.90;1.00
52127;DHT22;38120;53.176;6.614;2024-01-07T11:12:31;0.80;99.90
52127;DHT22;38120;53.176;6.614;2024-01-07T11:14:57;0.80;1.00
52127;DHT22;38120;53.176;6.614;2024-01-07T11:17:44;0.80;1.00
52127;DHT22;38120;53.176;6.614;2024-01-07T11:20:20;0.80;99.90
52127;DHT22;38120;53.176;6.614;2024-01-07T11:22:46;0.90;29.90
52127;DHT22;38120;53.176;6.614;2024-01-07T11:25:32;1.40;99.90
52127;DHT22;38120;53.176;6.614;2024-01-07T11:27:59;1.00;99.90
52127;DHT22;38120;53.176;6.614;2024-01-07T11:30:26;0.90;1.00
52127;DHT22;38120;53.176;6.614;2024-01-07T11:32:59;1.50;1.00
52127;DHT22;38120;53.176;6.614;2024-01-07T11:38:16;0.70;1.00
52127;DHT22;38120;53.176;6.614;2024-01-07T11:40:42;0.70;99.90
52127;DHT22;38120;53.176;6.614;2024-01-07T11:43:08;0.70;1.00
52127;DHT22;38120;53.176;6.614;2024-01-07T11:45:36;0.80;92.10
52127;DHT22;38120;53.176;6.614;2024-01-07T11:48:02;0.80;99.90
52127;DHT22;38120;53.176;6.614;2024-01-07T11:50:28;0.80;1.00
52127;DHT22;38120;53.176;6.614;2024-01-07T11:52:55;1.20;1.00
52127;DHT22;38120;53.176;6.614;2024-01-07T11:55:21;1.00;99.00
52127;DHT22;38120;53.176;6.614;2024-01-07T11:57:47;0.80;14.10
52127;DHT22;38120;53.176;6.614;2024-01-07T12:00:13;0.80;1.00
52127;DHT22;38120;53.176;6.614;2024-01-07T12:02:39;0.80;79.70
52127;DHT22;38120;53.176;6.614;2024-01-07T12:05:05;0.80;99.90
52127;DHT22;38120;53.176;6.614;2024-01-07T12:07:31;0.80;99.90
52127;DHT22;38120;53.176;6.614;2024-01-07T12:09:57;0.90;99.90
52127;DHT22;38120;53.176;6.614;2024-01-07T12:12:24;0.80;1.00
52127;DHT22;38120;53.176;6.614;2024-01-07T12:14:50;0.90;26.30
52127;DHT22;38120;53.176;6.614;2024-01-07T12:17:19;0.70;99.90
52127;DHT22;38120;53.176;6.614;2024-01-07T12:19:45;0.90;99.90
52127;DHT22;38120;53.176;6.614;2024-01-07T12:22:11;1.00;99.90
52127;DHT22;38120;53.176;6.614;2024-01-07T12:24:36;0.90;99.90
52127;DHT22;38120;53.176;6.614;2024-01-07T12:27:06;0.90;65.80
52127;DHT22;38120;53.176;6.614;2024-01-07T12:29:32;0.80;51.00
52127;DHT22;38120;53.176;6.614;2024-01-07T12:31:59;0.80;62.70
52127;DHT22;38120;53.176;6.614;2024-01-07T12:34:25;0.70;70.70
52127;DHT22;38120;53.176;6.614;2024-01-07T12:36:51;0.60;99.90
52127;DHT22;38120;53.176;6.614;2024-01-07T12:39:20;0.60;99.90
52127;DHT22;38120;53.176;6.614;2024-01-07T12:41:46;0.70;99.90
52127;DHT22;38120;53.176;6.614;2024-01-07T12:44:12;0.60;99.90
52127;DHT22;38120;53.176;6.614;2024-01-07T12:46:38;0.50;99.90
52127;DHT22;38120;53.176;6.614;2024-01-07T12:49:04;0.50;99.90
52127;DHT22;38120;53.176;6.614;2024-01-07T12:51:29;0.40;99.90
52127;DHT22;38120;53.176;6.614;2024-01-07T12:53:55;0.40;99.90
52127;DHT22;38120;53.176;6.614;2024-01-07T12:56:22;0.40;99.90
52127;DHT22;38120;53.176;6.614;2024-01-07T12:58:47;0.30;99.90
52127;DHT22;38120;53.176;6.614;2024-01-07T13:01:13;0.30;99.90
52127;DHT22;38120;53.176;6.614;2024-01-07T13:03:40;0.30;99.90
52127;DHT22;38120;53.176;6.614;2024-01-07T13:06:06;0.40;99.90
52127;DHT22;38120;53.176;6.614;2024-01-07T13:08:32;0.50;99.90
52127;DHT22;38120;53.176;6.614;2024-01-07T13:10:58;0.80;99.90
52127;DHT22;38120;53.176;6.614;2024-01-07T13:13:26;1.10;99.90
52127;DHT22;38120;53.176;6.614;2024-01-07T13:15:51;0.70;99.90
52127;DHT22;38120;53.176;6.614;2024-01-07T13:18:20;0.70;99.90
52127;DHT22;38120;53.176;6.614;2024-01-07T13:20:46;0.50;99.90
52127;DHT22;38120;53.176;6.614;2024-01-07T13:23:12;0.40;99.90
52127;DHT22;38120;53.176;6.614;2024-01-07T13:25:37;0.30;99.90
52127;DHT22;38120;53.176;6.614;2024-01-07T13:28:03;0.40;99.90
52127;DHT22;38120;53.176;6.614;2024-01-07T13:30:31;0.10;99.90
52127;DHT22;38120;53.176;6.614;2024-01-07T13:32:57;0.30;99.90
52127;DHT22;38120;53.176;6.614;2024-01-07T13:35:23;0.40;99.90
52127;DHT22;38120;53.176;6.614;2024-01-07T13:37:50;0.40;99.90
52127;DHT22;38120;53.176;6.614;2024-01-07T13:40:19;0.40;99.90
52127;DHT22;38120;53.176;6.614;2024-01-07T13:42:45;0.50;99.90
52127;DHT22;38120;53.176;6.614;2024-01-07T13:45:11;0.50;99.90
52127;DHT22;38120;53.176;6.614;2024-01-07T13:47:39;0.40;99.90
52127;DHT22;38120;53.176;6.614;2024-01-07T13:50:05;0.50;99.90
52127;DHT22;38120;53.176;6.614;2024-01-07T13:52:32;0.40;99.90
52127;DHT22;38120;53.176;6.614;2024-01-07T13:54:57;0.50;99.90
52127;DHT22;38120;53.176;6.614;2024-01-07T13:57:23;0.50;99.90
52127;DHT22;38120;53.176;6.614;2024-01-07T13:59:49;0.40;99.90
52127;DHT22;38120;53.176;6.614;2024-01-07T14:02:15;0.40;99.90
52127;DHT22;38120;53.176;6.614;2024-01-07T14:04:45;0.30;99.90
52127;DHT22;38120;53.176;6.614;2024-01-07T14:07:10;0.30;99.90
52127;DHT22;38120;53.176;6.614;2024-01-07T14:09:36;0.30;99.90
52127;DHT22;38120;53.176;6.614;2024-01-07T14:12:02;0.30;99.90
52127;DHT22;38120;53.176;6.614;2024-01-07T14:14:28;0.40;99.90
52127;DHT22;38120;53.176;6.614;2024-01-07T14:16:54;0.40;99.90
52127;DHT22;38120;53.176;6.614;2024-01-07T14:19:19;0.40;99.90
52127;DHT22;38120;53.176;6.614;2024-01-07T14:21:45;0.30;99.90
52127;DHT22;38120;53.176;6.614;2024-01-07T14:24:11;0.30;99.90
52127;DHT22;38120;53.176;6.614;2024-01-07T14:26:37;0.30;99.90
52127;DHT22;38120;53.176;6.614;2024-01-07T14:29:03;0.30;99.90
52127;DHT22;38120;53.176;6.614;2024-01-07T14:31:29;0.30;99.90
52127;DHT22;38120;53.176;6.614;2024-01-07T14:33:55;0.40;99.90
52127;DHT22;38120;53.176;6.614;2024-01-07T14:36:21;0.20;99.90
52127;DHT22;38120;53.176;6.614;2024-01-07T14:38:48;0.20;99.90
52127;DHT22;38120;53.176;6.614;2024-01-07T14:41:14;0.20;99.90
52127;DHT22;38120;53.176;6.614;2024-01-07T14:43:41;0.10;99.90
52127;DHT22;38120;53.176;6.614;2024-01-07T14:46:07;0.10;99.90
52127;DHT22;38120;53.176;6.614;2024-01-07T14:48:33;0.10;99.90
52127;DHT22;38120;53.176;6.614;2024-01-07T14:50:59;0.10;99.90
52127;DHT22;38120;53.176;6.614;2024-01-07T14:53:25;0.10;99.90
52127;DHT22;38120;53.176;6.614;2024-01-07T14:55:51;0.00;99.90
52127;DHT22;38120;53.176;6.614;2024-01-07T14:58:17;0.00;99.90
52127;DHT22;38120;53.176;6.614;2024-01-07T15:00:43;0.00;99.90
52127;DHT22;38120;53.176;6.614;2024-01-07T15:03:09;-0.10;99.90
52127;DHT22;38120;53.176;6.614;2024-01-07T15:05:35;-0.10;99.90
52127;DHT22;38120;53.176;6.614;2024-01-07T15:08:01;-0.20;99.90
52127;DHT22;38120;53.176;6.614;2024-01-07T15:10:26;-0.20;99.90
52127;DHT22;38120;53.176;6.614;2024-01-07T15:12:52;-0.20;99.90
52127;DHT22;38120;53.176;6.614;2024-01-07T15:15:18;-0.20;99.90
52127;DHT22;38120;53.176;6.614;2024-01-07T15:17:46;-0.30;99.90
52127;DHT22;38120;53.176;6.614;2024-01-07T15:20:11;-0.30;99.90
52127;DHT22;38120;53.176;6.614;2024-01-07T15:22:37;-0.30;99.90
52127;DHT22;38120;53.176;6.614;2024-01-07T15:25:03;-0.30;99.90
52127;DHT22;38120;53.176;6.614;2024-01-07T15:27:32;-0.40;99.90
52127;DHT22;38120;53.176;6.614;2024-01-07T15:29:58;-0.40;99.90
52127;DHT22;38120;53.176;6.614;2024-01-07T15:32:24;-0.50;99.90
52127;DHT22;38120;53.176;6.614;2024-01-07T15:34:52;-0.50;99.90
52127;DHT22;38120;53.176;6.614;2024-01-07T15:37:17;-0.50;99.90